Time;durP1;ratioP1;P1;durP2;ratioP2;P2;SDS_P1;SDS_P2;PMS_P1;PMS_P2;Temp;Humidity;BMP_temperature;BMP_pressure;BME280_temperature;BME280_humidity;BME280_pressure;Samples;Min_cycle;Max_cycle;Signal;HPM_P1;HPM_P2
2023/03/29 00:00:58;;;;;;;5.83;3.27;;;7.30;83.00;;;;;;6064852;23;20181;-78
2023/03/29 00:03:29;;;;;;;4.63;3.00;;;7.30;82.70;;;;;;6063072;23;20612;-80
2023/03/29 00:06:01;;;;;;;5.80;2.90;;;7.30;82.50;;;;;;6064307;23;20630;-80
2023/03/29 00:08:32;;;;;;;5.95;3.13;;;7.30;82.40;;;;;;6060223;23;20399;-78
2023/03/29 00:11:01;;;;;;;4.97;2.60;;;7.30;82.70;;;;;;6064246;23;20169;-79
2023/03/29 00:13:30;;;;;;;6.00;2.93;;;7.30;82.40;;;;;;6063984;23;20489;-78
2023/03/29 00:15:58;;;;;;;5.70;2.90;;;7.30;81.90;;;;;;6062931;23;20178;-79
2023/03/29 00:18:28;;;;;;;5.07;2.30;;;7.20;81.30;;;;;;6064352;23;20210;-78
2023/03/29 00:20:57;;;;;;;5.50;3.27;;;7.20;81.20;;;;;;6066532;23;20229;-78
2023/03/29 00:23:25;;;;;;;7.87;2.70;;;7.20;81.20;;;;;;6061541;23;20186;-78
2023/03/29 00:25:54;;;;;;;6.27;3.30;;;7.20;81.00;;;;;;6065242;23;20178;-78
2023/03/29 00:28:23;;;;;;;5.33;2.77;;;7.20;79.90;;;;;;6066292;23;20626;-78
2023/03/29 00:30:51;;;;;;;6.37;3.17;;;7.20;79.20;;;;;;6066174;23;20186;-77
2023/03/29 00:33:21;;;;;;;7.27;2.93;;;7.20;79.00;;;;;;6064925;23;20210;-78
2023/03/29 00:35:53;;;;;;;4.63;2.50;;;7.20;79.20;;;;;;6066009;23;20423;-78
2023/03/29 00:38:21;;;;;;;7.40;3.23;;;7.20;79.30;;;;;;6063565;23;20190;-78
2023/03/29 00:40:50;;;;;;;7.00;2.93;;;7.20;79.40;;;;;;6067310;23;20618;-78
2023/03/29 00:43:18;;;;;;;10.43;3.40;;;7.20;79.30;;;;;;6065691;23;20636;-78
2023/03/29 00:45:46;;;;;;;6.17;3.10;;;7.20;79.20;;;;;;6066847;23;20192;-79
2023/03/29 00:48:18;;;;;;;6.20;3.20;;;7.20;78.90;;;;;;6066808;23;20184;-78
2023/03/29 00:50:50;;;;;;;7.73;3.20;;;7.20;78.70;;;;;;6066444;23;20560;-79
2023/03/29 00:53:26;;;;;;;5.93;3.83;;;7.20;78.60;;;;;;6063272;23;20754;-77
2023/03/29 00:55:59;;;;;;;5.30;2.97;;;7.20;78.80;;;;;;6065890;23;20232;-77
2023/03/29 00:58:32;;;;;;;7.23;3.20;;;7.20;78.70;;;;;;6064437;23;20209;-77
2023/03/29 01:01:09;;;;;;;8.23;3.67;;;7.20;78.50;;;;;;6053901;23;20165;-78
2023/03/29 01:03:45;;;;;;;6.70;3.60;;;7.10;78.50;;;;;;6065329;23;20534;-78
2023/03/29 01:06:16;;;;;;;6.00;3.53;;;7.10;78.30;;;;;;6065513;23;20169;-78
2023/03/29 01:08:51;;;;;;;7.87;4.10;;;7.10;78.00;;;;;;6064762;23;20241;-78
2023/03/29 01:11:22;;;;;;;8.77;4.00;;;7.10;78.00;;;;;;6063033;23;20546;-78
2023/03/29 01:13:56;;;;;;;8.30;3.90;;;7.10;78.20;;;;;;6065908;23;20220;-77
2023/03/29 01:16:27;;;;;;;6.23;3.53;;;7.10;78.50;;;;;;6063642;23;20169;-80
2023/03/29 01:18:57;;;;;;;8.20;4.30;;;7.10;78.50;;;;;;6065266;23;20173;-78
2023/03/29 01:21:31;;;;;;;7.00;3.67;;;7.10;78.60;;;;;;6064003;23;20260;-78
2023/03/29 01:24:29;;;;;;;8.50;4.67;;;7.10;78.70;;;;;;6065904;23;20161;-78
2023/03/29 01:27:05;;;;;;;8.83;4.30;;;7.10;78.80;;;;;;6061875;23;20181;-81
2023/03/29 01:29:42;;;;;;;7.27;4.10;;;7.10;79.00;;;;;;6064930;23;20217;-78
2023/03/29 01:32:15;;;;;;;7.67;4.47;;;7.10;79.10;;;;;;6064413;23;20166;-77
2023/03/29 01:34:47;;;;;;;10.00;4.23;;;7.10;79.30;;;;;;6065719;23;20166;-78
2023/03/29 01:37:23;;;;;;;7.67;5.03;;;7.10;79.60;;;;;;6064136;23;20180;-77
2023/03/29 01:39:52;;;;;;;8.30;5.20;;;7.20;79.70;;;;;;6065334;23;20161;-78
2023/03/29 01:42:39;;;;;;;7.83;4.50;;;7.20;79.70;;;;;;6064009;23;20544;-79
2023/03/29 01:45:18;;;;;;;6.50;4.00;;;7.20;79.70;;;;;;6066451;23;20165;-79
2023/03/29 01:47:54;;;;;;;8.17;4.47;;;7.30;79.70;;;;;;6063941;23;20210;-79
2023/03/29 01:50:31;;;;;;;8.23;4.73;;;7.30;79.70;;;;;;6065391;23;20163;-78
2023/03/29 01:53:04;;;;;;;7.53;4.57;;;7.30;79.70;;;;;;6063095;23;20166;-77
2023/03/29 01:55:37;;;;;;;7.80;4.83;;;7.40;79.60;;;;;;6064167;23;20284;-77
2023/03/29 01:58:08;;;;;;;8.37;4.37;;;7.40;79.60;;;;;;6063111;23;20208;-76
2023/03/29 02:00:39;;;;;;;8.67;4.90;;;7.40;79.00;;;;;;6066605;23;20166;-78
2023/03/29 02:03:09;;;;;;;8.03;4.93;;;7.40;78.70;;;;;;6062784;23;20182;-78
2023/03/29 02:05:41;;;;;;;9.20;4.60;;;7.30;78.60;;;;;;6064920;23;20232;-77
2023/03/29 02:08:14;;;;;;;7.03;4.03;;;7.30;78.70;;;;;;6064116;23;20159;-78
2023/03/29 02:10:43;;;;;;;9.77;4.83;;;7.40;78.40;;;;;;6064614;23;20221;-78
2023/03/29 02:13:12;;;;;;;9.50;4.73;;;7.30;77.80;;;;;;6061818;23;20178;-77
2023/03/29 02:15:43;;;;;;;10.57;5.13;;;7.30;77.50;;;;;;6064261;23;20781;-78
2023/03/29 02:18:13;;;;;;;11.70;6.13;;;7.30;77.50;;;;;;6062622;23;20212;-78
2023/03/29 02:20:46;;;;;;;13.47;6.13;;;7.20;76.90;;;;;;6064609;23;20557;-78
2023/03/29 02:23:20;;;;;;;15.77;6.43;;;7.20;76.20;;;;;;6063845;23;20165;-78
2023/03/29 02:25:52;;;;;;;10.10;5.97;;;7.20;76.60;;;;;;6063242;23;20197;-77
2023/03/29 02:28:22;;;;;;;10.73;6.27;;;7.20;76.50;;;;;;6062682;23;20166;-77
2023/03/29 02:30:58;;;;;;;13.80;5.80;;;7.20;76.20;;;;;;6065357;23;20485;-77
2023/03/29 02:33:32;;;;;;;14.40;6.60;;;7.20;76.30;;;;;;6065728;23;20165;-77
2023/03/29 02:36:04;;;;;;;14.60;7.33;;;7.20;75.70;;;;;;6064884;23;20169;-78
2023/03/29 02:38:34;;;;;;;13.47;6.50;;;7.20;73.30;;;;;;6063260;23;20434;-76
2023/03/29 02:41:04;;;;;;;10.40;5.87;;;7.20;72.70;;;;;;6062874;23;20232;-78
2023/03/29 02:43:34;;;;;;;12.17;6.50;;;7.10;71.50;;;;;;6065637;23;20181;-78
2023/03/29 02:46:06;;;;;;;11.80;6.70;;;7.00;71.40;;;;;;6065932;23;20181;-78
2023/03/29 02:48:37;;;;;;;15.63;7.00;;;7.00;71.40;;;;;;6067387;23;20163;-78
2023/03/29 02:51:12;;;;;;;13.70;6.40;;;6.90;71.50;;;;;;6066058;23;20719;-76
2023/03/29 02:53:44;;;;;;;15.33;6.67;;;6.90;71.70;;;;;;6064995;23;20165;-77
2023/03/29 02:56:14;;;;;;;18.13;6.93;;;6.80;71.10;;;;;;6063051;23;20164;-78
2023/03/29 02:58:42;;;;;;;19.03;8.07;;;6.70;70.30;;;;;;6061220;23;20276;-77
2023/03/29 03:01:13;;;;;;;19.33;8.40;;;6.60;70.10;;;;;;6060904;23;20603;-76
2023/03/29 03:03:41;;;;;;;21.67;6.57;;;6.50;69.80;;;;;;6062133;23;20243;-77
2023/03/29 03:06:11;;;;;;;14.27;6.10;;;6.40;70.50;;;;;;6061351;23;20185;-79
2023/03/29 03:08:39;;;;;;;14.23;6.70;;;6.40;69.80;;;;;;6062878;23;20237;-77
2023/03/29 03:11:08;;;;;;;11.23;5.97;;;6.20;68.90;;;;;;6060946;23;20299;-77
2023/03/29 03:13:36;;;;;;;15.57;5.30;;;6.20;69.20;;;;;;6063724;23;20229;-78
2023/03/29 03:16:05;;;;;;;12.27;5.23;;;6.10;69.30;;;;;;6062485;23;20185;-77
2023/03/29 03:18:35;;;;;;;11.77;5.50;;;6.20;69.70;;;;;;6066023;23;20629;-77
2023/03/29 03:21:04;;;;;;;8.30;4.33;;;6.10;69.50;;;;;;6064747;23;20176;-78
2023/03/29 03:23:35;;;;;;;10.33;4.47;;;6.00;69.20;;;;;;6063382;23;20158;-78
2023/03/29 03:26:04;;;;;;;11.87;5.03;;;6.10;69.60;;;;;;6062160;23;20180;-78
2023/03/29 03:28:33;;;;;;;12.67;4.57;;;6.00;69.60;;;;;;6066500;23;20284;-77
2023/03/29 03:31:01;;;;;;;10.77;4.27;;;6.10;69.80;;;;;;6064955;23;20232;-77
2023/03/29 03:33:30;;;;;;;12.87;4.27;;;6.00;69.30;;;;;;6065257;23;20661;-78
2023/03/29 03:36:03;;;;;;;8.30;4.13;;;6.00;69.30;;;;;;6063948;23;20232;-78
2023/03/29 03:38:32;;;;;;;10.07;4.67;;;6.00;69.30;;;;;;6064037;23;20179;-78
2023/03/29 03:41:02;;;;;;;7.07;3.90;;;5.90;69.30;;;;;;6063932;23;20236;-78
2023/03/29 03:43:31;;;;;;;9.20;4.43;;;6.00;69.60;;;;;;6065336;23;20163;-78
2023/03/29 03:45:59;;;;;;;7.53;3.90;;;5.90;69.30;;;;;;6065815;23;20188;-77
2023/03/29 03:48:28;;;;;;;13.07;4.93;;;5.90;69.30;;;;;;6064657;23;20178;-78
2023/03/29 03:50:58;;;;;;;9.23;3.73;;;5.80;69.40;;;;;;6065141;23;20178;-76
2023/03/29 03:53:28;;;;;;;11.07;5.00;;;5.80;69.50;;;;;;6066818;23;20519;-77
2023/03/29 03:55:56;;;;;;;14.33;4.50;;;5.80;69.70;;;;;;6065563;23;20178;-77
2023/03/29 03:58:24;;;;;;;9.47;4.17;;;5.80;69.60;;;;;;6060523;23;20202;-76
2023/03/29 04:00:53;;;;;;;7.20;4.20;;;5.90;70.00;;;;;;6062666;23;20205;-77
2023/03/29 04:03:22;;;;;;;9.40;3.77;;;5.80;69.70;;;;;;6063558;23;20179;-78
2023/03/29 04:05:51;;;;;;;11.67;4.30;;;5.80;69.70;;;;;;6064932;23;20281;-75
2023/03/29 04:08:21;;;;;;;9.17;4.00;;;5.80;69.80;;;;;;6062565;23;20233;-78
2023/03/29 04:10:54;;;;;;;11.97;4.00;;;5.80;70.00;;;;;;6064231;23;20178;-77
2023/03/29 04:13:22;;;;;;;10.47;4.17;;;5.80;69.70;;;;;;6063597;23;20164;-77
2023/03/29 04:15:52;;;;;;;16.53;5.93;;;5.80;69.90;;;;;;6067006;23;20182;-76
2023/03/29 04:18:21;;;;;;;12.77;5.00;;;5.70;69.80;;;;;;6064003;23;20214;-78
2023/03/29 04:20:50;;;;;;;13.67;5.70;;;5.80;70.20;;;;;;6063719;23;20178;-77
2023/03/29 04:23:19;;;;;;;10.27;5.37;;;5.80;70.40;;;;;;6063462;23;20186;-77
2023/03/29 04:25:47;;;;;;;11.30;5.10;;;5.90;70.40;;;;;;6065485;23;20186;-77
2023/03/29 04:28:17;;;;;;;13.13;5.03;;;5.90;70.30;;;;;;6064855;23;20193;-78
2023/03/29 04:30:46;;;;;;;13.57;4.50;;;5.90;69.90;;;;;;6066698;23;20178;-78
2023/03/29 04:33:16;;;;;;;12.17;5.13;;;5.90;69.90;;;;;;6065401;23;20270;-77
2023/03/29 04:35:44;;;;;;;12.63;4.53;;;6.00;70.00;;;;;;6065676;23;20180;-77
2023/03/29 04:38:12;;;;;;;14.67;4.40;;;6.00;70.30;;;;;;6061492;23;20187;-77
2023/03/29 04:40:42;;;;;;;10.80;4.33;;;6.00;70.00;;;;;;6066159;23;20179;-78
2023/03/29 04:43:11;;;;;;;12.83;3.97;;;6.00;70.10;;;;;;6062215;23;20537;-78
2023/03/29 04:45:41;;;;;;;7.70;3.33;;;6.10;70.10;;;;;;6066597;23;20178;-77
2023/03/29 04:48:09;;;;;;;11.37;3.83;;;6.20;70.30;;;;;;6062860;23;20507;-77
2023/03/29 04:50:37;;;;;;;7.77;3.40;;;6.20;70.50;;;;;;6065031;23;20194;-78
2023/03/29 04:53:06;;;;;;;10.63;3.67;;;6.20;70.00;;;;;;6065577;23;20665;-78
2023/03/29 04:55:35;;;;;;;7.93;2.70;;;6.30;70.10;;;;;;6063780;23;20549;-77
2023/03/29 04:58:03;;;;;;;12.57;3.37;;;6.30;70.10;;;;;;6062477;23;20573;-78
2023/03/29 05:00:32;;;;;;;7.70;3.00;;;6.20;68.90;;;;;;6048092;23;20589;-77
2023/03/29 05:03:03;;;;;;;9.80;2.83;;;6.20;69.00;;;;;;6065394;23;20182;-78
2023/03/29 05:05:31;;;;;;;8.00;3.23;;;6.30;69.40;;;;;;6065833;23;20229;-78
2023/03/29 05:08:00;;;;;;;7.07;2.97;;;6.30;69.60;;;;;;6058799;23;20244;-79
2023/03/29 05:10:28;;;;;;;5.17;2.47;;;6.40;68.80;;;;;;6066344;23;20198;-78
2023/03/29 05:12:57;;;;;;;10.13;3.03;;;6.40;68.30;;;;;;6065147;23;20701;-79
2023/03/29 05:15:25;;;;;;;7.20;3.00;;;6.40;68.60;;;;;;6062878;23;20181;-77
2023/03/29 05:17:53;;;;;;;11.40;3.43;;;6.40;68.30;;;;;;6063748;23;20517;-77
2023/03/29 05:20:23;;;;;;;13.17;3.30;;;6.50;68.70;;;;;;6066238;23;20183;-77
2023/03/29 05:22:52;;;;;;;8.70;3.10;;;6.60;68.80;;;;;;6065352;23;20239;-77
2023/03/29 05:25:21;;;;;;;10.63;3.60;;;6.70;68.50;;;;;;6062940;23;20753;-77
2023/03/29 05:27:49;;;;;;;5.67;3.17;;;6.60;66.20;;;;;;6064907;23;20237;-77
2023/03/29 05:30:18;;;;;;;8.63;3.13;;;6.70;67.60;;;;;;6061401;23;20265;-75
2023/03/29 05:32:46;;;;;;;8.40;3.20;;;6.70;66.90;;;;;;6061441;23;20183;-77
2023/03/29 05:35:15;;;;;;;6.43;3.17;;;6.70;66.70;;;;;;6065120;23;20177;-78
2023/03/29 05:37:46;;;;;;;6.73;3.07;;;6.60;66.00;;;;;;6060315;23;20240;-76
2023/03/29 05:40:14;;;;;;;8.57;2.70;;;6.70;65.80;;;;;;6061681;23;20248;-77
2023/03/29 05:42:42;;;;;;;8.27;3.43;;;6.80;66.60;;;;;;6061136;23;20635;-75
2023/03/29 05:45:11;;;;;;;7.97;3.00;;;6.80;65.40;;;;;;6065317;23;20190;-78
2023/03/29 05:47:39;;;;;;;6.43;2.80;;;6.90;65.80;;;;;;6064759;23;20181;-78
2023/03/29 05:50:10;;;;;;;6.50;2.77;;;6.90;65.80;;;;;;6066085;23;20192;-77
2023/03/29 05:52:39;;;;;;;4.80;2.80;;;7.00;66.50;;;;;;5992724;23;20650;-78
2023/03/29 05:55:10;;;;;;;9.07;3.03;;;7.20;66.30;;;;;;6066103;23;20178;-78
2023/03/29 05:57:39;;;;;;;7.30;3.53;;;7.20;63.60;;;;;;6064215;23;20204;-77
2023/03/29 06:00:18;;;;;;;6.53;2.80;;;7.30;64.10;;;;;;6065107;23;20207;-78
2023/03/29 06:02:47;;;;;;;4.13;2.30;;;7.30;63.00;;;;;;6065374;23;20177;-77
2023/03/29 06:05:15;;;;;;;6.17;2.60;;;7.50;62.80;;;;;;6058135;23;20186;-78
2023/03/29 06:07:44;;;;;;;10.67;2.40;;;7.50;63.00;;;;;;6061184;23;20162;-77
2023/03/29 06:10:14;;;;;;;3.73;2.10;;;7.60;61.50;;;;;;6060833;23;20199;-76
2023/03/29 06:12:42;;;;;;;6.63;2.37;;;7.60;61.60;;;;;;6060609;23;20163;-76
2023/03/29 06:15:11;;;;;;;4.57;2.50;;;7.70;62.20;;;;;;6063546;23;20183;-76
2023/03/29 06:17:39;;;;;;;4.17;2.53;;;7.80;62.70;;;;;;6062484;23;20185;-77
2023/03/29 06:20:10;;;;;;;3.33;1.63;;;7.90;62.80;;;;;;6067889;23;20170;-78
2023/03/29 06:22:39;;;;;;;6.53;2.40;;;8.00;63.20;;;;;;6063113;23;20532;-77
2023/03/29 06:25:11;;;;;;;3.50;1.80;;;8.10;62.90;;;;;;6061798;23;21059;-76
2023/03/29 06:27:40;;;;;;;3.27;2.00;;;8.10;61.10;;;;;;6063191;23;20222;-75
2023/03/29 06:30:10;;;;;;;5.83;2.30;;;8.00;59.60;;;;;;6066941;23;20198;-78
2023/03/29 06:32:39;;;;;;;4.20;2.50;;;8.10;60.70;;;;;;6064710;23;20214;-77
2023/03/29 06:35:10;;;;;;;6.33;2.40;;;8.10;61.20;;;;;;6064150;23;20174;-76
2023/03/29 06:37:41;;;;;;;3.83;2.30;;;8.20;60.80;;;;;;6062611;23;20182;-77
2023/03/29 06:40:11;;;;;;;4.67;2.20;;;8.20;61.10;;;;;;6067778;23;20159;-78
2023/03/29 06:42:41;;;;;;;3.40;1.70;;;8.30;60.40;;;;;;6065180;23;20222;-76
2023/03/29 06:45:11;;;;;;;3.83;2.00;;;8.30;60.30;;;;;;6066201;23;20186;-77
2023/03/29 06:47:39;;;;;;;3.50;2.03;;;8.40;60.50;;;;;;6063583;23;20186;-77
2023/03/29 06:50:10;;;;;;;6.17;1.73;;;8.50;60.60;;;;;;6065645;23;20660;-77
2023/03/29 06:52:38;;;;;;;2.70;1.70;;;8.50;59.90;;;;;;6064713;23;20619;-79
2023/03/29 06:55:08;;;;;;;5.00;2.17;;;8.60;59.60;;;;;;6064677;23;20517;-78
2023/03/29 06:57:36;;;;;;;5.43;1.70;;;8.70;59.90;;;;;;6063482;23;20210;-78
2023/03/29 07:00:15;;;;;;;2.70;1.40;;;8.70;59.80;;;;;;6060549;23;20174;-77
2023/03/29 07:02:44;;;;;;;7.20;2.30;;;8.80;58.50;;;;;;6065488;23;20171;-77
2023/03/29 07:05:13;;;;;;;6.10;2.63;;;8.90;58.80;;;;;;6066759;23;20178;-77
2023/03/29 07:07:55;;;;;;;3.13;1.87;;;8.90;58.40;;;;;;6061735;23;20174;-77
2023/03/29 07:10:42;;;;;;;2.70;1.63;;;8.90;58.90;;;;;;6064700;23;20483;-76
2023/03/29 07:13:12;;;;;;;2.93;1.80;;;8.90;57.90;;;;;;6063512;23;20595;-73
2023/03/29 07:15:43;;;;;;;3.57;1.83;;;8.90;58.70;;;;;;6066106;23;20178;-78
2023/03/29 07:18:12;;;;;;;3.80;1.90;;;9.00;58.60;;;;;;6065616;23;20192;-77
2023/03/29 07:20:41;;;;;;;3.20;1.97;;;9.10;58.80;;;;;;6067259;23;20171;-78
2023/03/29 07:23:10;;;;;;;5.20;2.20;;;9.20;58.70;;;;;;6063825;23;20181;-78
2023/03/29 07:25:39;;;;;;;3.67;1.77;;;9.20;58.50;;;;;;6066678;23;20179;-77
2023/03/29 07:28:08;;;;;;;3.93;1.80;;;9.30;58.30;;;;;;6062499;23;20163;-77
2023/03/29 07:30:38;;;;;;;4.03;1.80;;;9.30;58.40;;;;;;6066703;23;20202;-77
2023/03/29 07:33:08;;;;;;;7.00;2.10;;;9.30;58.60;;;;;;6061995;23;20234;-77
2023/03/29 07:35:37;;;;;;;4.70;2.05;;;9.40;58.50;;;;;;6065876;23;20391;-77
2023/03/29 07:38:07;;;;;;;2.57;1.57;;;9.40;58.10;;;;;;6065637;23;20185;-77
2023/03/29 07:40:35;;;;;;;3.00;1.70;;;9.40;57.30;;;;;;6065951;23;20174;-78
2023/03/29 07:43:07;;;;;;;3.20;1.67;;;9.40;57.20;;;;;;6063434;23;20179;-78
2023/03/29 07:45:36;;;;;;;3.60;1.90;;;9.40;57.00;;;;;;6064512;23;20543;-77
2023/03/29 07:48:07;;;;;;;3.20;1.43;;;9.50;57.70;;;;;;6062976;23;20179;-78
2023/03/29 07:50:35;;;;;;;2.57;1.53;;;9.50;57.40;;;;;;6061415;23;20183;-78
2023/03/29 07:53:04;;;;;;;7.90;2.80;;;9.50;55.00;;;;;;6063779;23;20261;-76
2023/03/29 07:55:32;;;;;;;3.17;1.83;;;9.50;55.80;;;;;;6065987;23;20186;-77
2023/03/29 07:58:01;;;;;;;2.73;1.60;;;9.60;55.60;;;;;;6064826;23;20202;-76
2023/03/29 08:00:31;;;;;;;2.90;1.70;;;9.70;55.70;;;;;;6065346;23;20623;-77
2023/03/29 08:03:02;;;;;;;3.57;1.87;;;9.70;55.70;;;;;;6059464;23;20238;-75
2023/03/29 08:05:32;;;;;;;2.40;1.53;;;9.80;55.30;;;;;;6065904;23;20237;-76
2023/03/29 08:08:09;;;;;;;2.37;1.50;;;9.80;54.90;;;;;;6061529;23;20635;-77
2023/03/29 08:10:39;;;;;;;2.87;1.70;;;9.90;54.50;;;;;;6064779;23;20245;-77
2023/03/29 08:13:08;;;;;;;3.30;1.60;;;10.00;54.60;;;;;;6064814;23;20178;-77
2023/03/29 08:15:38;;;;;;;3.00;1.73;;;10.00;54.50;;;;;;6065606;23;20190;-77
2023/03/29 08:18:07;;;;;;;4.20;1.80;;;10.10;54.30;;;;;;6065462;23;20190;-77
2023/03/29 08:20:37;;;;;;;2.83;1.40;;;10.10;52.90;;;;;;6062567;23;20221;-77
2023/03/29 08:23:06;;;;;;;3.00;1.90;;;10.20;53.30;;;;;;6065050;23;20178;-77
2023/03/29 08:25:35;;;;;;;4.17;1.40;;;10.20;53.40;;;;;;6066132;23;20229;-77
2023/03/29 08:28:04;;;;;;;2.40;1.60;;;10.30;53.70;;;;;;6065152;23;20214;-78
2023/03/29 08:30:32;;;;;;;5.30;1.80;;;10.30;53.40;;;;;;6064598;23;20202;-77
2023/03/29 08:33:00;;;;;;;2.83;1.57;;;10.20;51.90;;;;;;6060182;23;20262;-76
2023/03/29 08:35:29;;;;;;;3.03;1.80;;;10.20;52.10;;;;;;6064195;23;20189;-77
2023/03/29 08:37:59;;;;;;;4.83;1.30;;;10.20;52.40;;;;;;6061622;23;20188;-77
2023/03/29 08:40:30;;;;;;;6.30;1.50;;;10.20;51.10;;;;;;6060610;23;20186;-77
2023/03/29 08:43:24;;;;;;;1.65;1.15;;;10.30;50.50;;;;;;6064286;23;20876;-77
2023/03/29 08:46:15;;;;;;;2.43;1.00;;;10.30;50.30;;;;;;6048004;23;20234;-77
2023/03/29 08:48:49;;;;;;;1.80;1.07;;;10.30;47.20;;;;;;6064914;23;20170;-77
2023/03/29 08:51:22;;;;;;;6.77;1.30;;;10.30;48.40;;;;;;6065624;23;20242;-78
2023/03/29 08:53:53;;;;;;;3.00;1.27;;;10.20;46.60;;;;;;6065013;23;20673;-78
2023/03/29 08:56:26;;;;;;;2.63;1.30;;;10.20;47.50;;;;;;6061476;23;20171;-77
2023/03/29 08:58:57;;;;;;;2.83;1.20;;;10.20;46.80;;;;;;6064412;23;20206;-77
2023/03/29 09:01:32;;;;;;;1.97;1.10;;;10.10;45.90;;;;;;6063474;23;20163;-76
2023/03/29 09:04:07;;;;;;;6.93;1.40;;;10.10;45.30;;;;;;6065652;23;20489;-77
2023/03/29 09:06:38;;;;;;;4.70;1.30;;;10.00;45.40;;;;;;6064711;23;20166;-77
2023/03/29 09:09:15;;;;;;;3.17;1.23;;;10.00;45.70;;;;;;6060705;23;20159;-76
2023/03/29 09:11:55;;;;;;;3.17;1.20;;;9.90;45.20;;;;;;6063227;23;20186;-75
2023/03/29 09:14:46;;;;;;;1.83;1.20;;;9.70;46.50;;;;;;6065015;23;20249;-75
2023/03/29 09:17:27;;;;;;;3.03;1.40;;;9.60;49.10;;;;;;6062961;23;20178;-79
2023/03/29 09:20:07;;;;;;;2.53;1.30;;;9.50;50.00;;;;;;6065140;23;20246;-77
2023/03/29 09:22:42;;;;;;;3.40;1.30;;;9.40;50.70;;;;;;6063806;23;20171;-76
2023/03/29 09:25:20;;;;;;;2.33;1.20;;;9.30;51.00;;;;;;6064184;23;20218;-77
2023/03/29 09:27:56;;;;;;;3.10;1.40;;;9.30;50.50;;;;;;6064519;23;20162;-76
2023/03/29 09:30:29;;;;;;;2.90;1.43;;;9.20;50.10;;;;;;6064051;23;20229;-77
2023/03/29 09:33:02;;;;;;;3.17;1.53;;;9.30;50.10;;;;;;6063642;23;20632;-77
2023/03/29 09:35:35;;;;;;;2.60;1.40;;;9.40;49.70;;;;;;6063789;23;20190;-76
2023/03/29 09:38:08;;;;;;;3.23;1.23;;;9.50;48.90;;;;;;6063561;23;20167;-76
2023/03/29 09:40:45;;;;;;;3.23;1.63;;;9.50;49.20;;;;;;6064639;23;20159;-77
2023/03/29 09:43:17;;;;;;;2.10;1.50;;;9.50;50.40;;;;;;6063145;23;20154;-77
2023/03/29 09:45:53;;;;;;;4.07;1.30;;;9.60;50.10;;;;;;6065475;23;20388;-77
2023/03/29 09:48:22;;;;;;;6.03;1.97;;;9.80;49.70;;;;;;6063277;23;20581;-78
2023/03/29 09:50:51;;;;;;;2.20;1.33;;;9.90;49.90;;;;;;6063675;23;20185;-76
2023/03/29 09:53:22;;;;;;;3.90;1.57;;;10.00;50.30;;;;;;6061332;23;20194;-77
2023/03/29 09:59:37;;;;;;;2.80;1.20;;;10.30;50.10;;;;;;6001386;23;20164;-77
2023/03/29 10:02:07;;;;;;;2.07;1.30;;;10.30;48.10;;;;;;6004891;23;20681;-78
2023/03/29 10:04:37;;;;;;;2.57;1.40;;;10.30;48.20;;;;;;6006635;23;20172;-76
2023/03/29 10:07:07;;;;;;;4.53;1.60;;;10.50;48.00;;;;;;6002779;23;20662;-77
2023/03/29 10:09:37;;;;;;;4.77;1.60;;;10.50;47.80;;;;;;6003342;23;20164;-75
2023/03/29 10:12:07;;;;;;;2.17;1.30;;;10.70;48.60;;;;;;6005070;23;20247;-79
2023/03/29 10:14:41;;;;;;;2.83;1.40;;;10.80;48.40;;;;;;6006182;23;20168;-76
2023/03/29 10:17:15;;;;;;;4.47;1.77;;;10.90;48.40;;;;;;6004914;23;20216;-75
2023/03/29 10:19:50;;;;;;;5.60;1.33;;;10.80;48.20;;;;;;6004516;23;20164;-75
2023/03/29 10:22:22;;;;;;;2.20;1.40;;;10.90;48.40;;;;;;6004099;23;20160;-76
2023/03/29 10:24:52;;;;;;;5.03;1.40;;;11.00;48.00;;;;;;6005847;23;20197;-76
2023/03/29 10:27:23;;;;;;;1.70;1.33;;;11.00;47.90;;;;;;6003460;23;20311;-77
2023/03/29 10:29:55;;;;;;;2.47;1.60;;;10.90;47.90;;;;;;6006444;23;20615;-75
2023/03/29 10:32:30;;;;;;;2.43;1.50;;;11.00;48.10;;;;;;6004705;23;20184;-76
2023/03/29 10:35:03;;;;;;;3.87;1.60;;;10.90;48.00;;;;;;6000391;23;20197;-78
2023/03/29 10:38:05;;;;;;;2.97;1.43;;;10.80;49.30;;;;;;6001822;23;20164;-78
2023/03/29 10:40:35;;;;;;;1.87;1.40;;;10.80;49.70;;;;;;5974291;23;20270;-75
2023/03/29 10:43:14;;;;;;;2.63;1.60;;;10.70;50.30;;;;;;6005544;23;20160;-76
2023/03/29 10:45:50;;;;;;;2.73;1.40;;;10.60;50.80;;;;;;6004641;23;20175;-78
2023/03/29 10:48:23;;;;;;;2.73;1.40;;;10.50;50.50;;;;;;6004632;23;20246;-78
2023/03/29 10:50:52;;;;;;;2.87;1.37;;;10.40;50.20;;;;;;6004801;23;20224;-76
2023/03/29 10:53:25;;;;;;;2.67;1.57;;;10.30;49.50;;;;;;6002995;23;20196;-77
2023/03/29 10:56:12;;;;;;;3.03;1.60;;;10.40;49.60;;;;;;5999220;23;20195;-76
2023/03/29 10:58:55;;;;;;;2.33;1.10;;;10.50;49.80;;;;;;6049193;23;20198;-77
2023/03/29 11:01:34;;;;;;;6.07;2.03;;;10.60;49.90;;;;;;6059553;23;20605;-76
2023/03/29 11:04:19;;;;;;;5.07;1.70;;;10.70;49.60;;;;;;6064240;23;20174;-78
2023/03/29 11:06:55;;;;;;;1.83;1.33;;;10.70;49.30;;;;;;6062085;23;20239;-77
2023/03/29 11:09:38;;;;;;;2.90;1.33;;;10.80;49.10;;;;;;6061736;23;20223;-76
2023/03/29 11:12:14;;;;;;;2.47;1.70;;;10.80;48.60;;;;;;6058570;23;20183;-76
2023/03/29 11:19:19;;;;;;;2.83;1.60;;;10.90;49.20;;;;;;5963848;24;20683;-72
2023/03/29 11:21:56;;;;;;;3.30;1.70;;;11.00;48.50;;;;;;6006748;23;20186;-77
2023/03/29 11:24:37;;;;;;;3.50;1.70;;;11.00;48.80;;;;;;6061492;23;20806;-76
2023/03/29 11:27:18;;;;;;;2.33;1.40;;;11.10;48.70;;;;;;6061361;23;20190;-78
2023/03/29 11:29:58;;;;;;;2.87;1.60;;;11.00;47.50;;;;;;6061559;23;20656;-74
2023/03/29 11:32:34;;;;;;;2.27;1.33;;;11.10;48.20;;;;;;6063798;23;20182;-77
2023/03/29 11:35:17;;;;;;;3.23;1.30;;;11.10;46.60;;;;;;6061224;23;20473;-78
2023/03/29 11:37:55;;;;;;;2.57;1.50;;;11.10;46.00;;;;;;6062275;23;20171;-77
2023/03/29 11:40:38;;;;;;;2.77;1.63;;;11.20;46.60;;;;;;6061346;23;20170;-76
2023/03/29 11:43:13;;;;;;;2.77;1.53;;;11.20;46.20;;;;;;6061814;23;20210;-77
2023/03/29 11:45:45;;;;;;;2.80;1.30;;;11.30;45.80;;;;;;6062371;23;20170;-76
2023/03/29 11:48:21;;;;;;;5.03;1.60;;;11.30;45.50;;;;;;6059520;23;20166;-77
2023/03/29 11:50:57;;;;;;;3.47;1.87;;;11.30;45.40;;;;;;6062826;23;20213;-77
2023/03/29 11:53:29;;;;;;;6.03;1.60;;;11.20;43.80;;;;;;6064129;23;20321;-77
2023/03/29 11:56:06;;;;;;;3.73;1.30;;;11.40;45.20;;;;;;6063134;23;20477;-77
2023/03/29 11:58:39;;;;;;;2.67;1.40;;;11.50;45.60;;;;;;6062406;23;20874;-77
2023/03/29 12:01:13;;;;;;;1.83;1.30;;;11.60;44.40;;;;;;6059307;23;20566;-77
2023/03/29 12:03:47;;;;;;;1.77;1.30;;;11.70;44.30;;;;;;6062052;23;20210;-78
2023/03/29 12:06:22;;;;;;;2.50;1.30;;;11.70;44.00;;;;;;6061151;23;20159;-77
2023/03/29 12:08:54;;;;;;;1.93;1.10;;;11.70;41.90;;;;;;6063018;23;20245;-77
2023/03/29 12:11:29;;;;;;;3.77;1.30;;;11.80;41.90;;;;;;6061025;23;20170;-77
2023/03/29 12:14:02;;;;;;;2.13;1.20;;;11.90;41.10;;;;;;6062006;23;20186;-78
2023/03/29 12:16:33;;;;;;;1.23;1.00;;;12.00;40.00;;;;;;6063072;23;20166;-77
2023/03/29 12:19:06;;;;;;;2.07;1.40;;;12.00;40.30;;;;;;6060311;23;20605;-78
2023/03/29 12:21:37;;;;;;;3.50;1.13;;;12.00;39.90;;;;;;6062559;23;20170;-76
2023/03/29 12:24:06;;;;;;;2.20;1.23;;;12.10;40.80;;;;;;6063036;23;20159;-75
2023/03/29 12:26:48;;;;;;;2.60;1.30;;;12.30;40.90;;;;;;6061781;23;20183;-77
2023/03/29 12:29:39;;;;;;;1.63;1.10;;;12.30;40.20;;;;;;6059766;23;20170;-77
2023/03/29 12:32:27;;;;;;;7.33;1.10;;;12.30;40.50;;;;;;6058026;23;20222;-77
2023/03/29 12:35:06;;;;;;;3.13;1.43;;;12.40;40.40;;;;;;6060404;23;20219;-76
2023/03/29 12:37:45;;;;;;;2.30;1.23;;;12.40;38.80;;;;;;6062919;23;20173;-78
2023/03/29 12:40:16;;;;;;;4.57;1.87;;;12.40;39.00;;;;;;6065937;23;20159;-77
2023/03/29 12:42:46;;;;;;;2.97;1.47;;;12.30;38.80;;;;;;6066713;23;20616;-77
2023/03/29 12:45:20;;;;;;;2.90;1.40;;;12.20;37.80;;;;;;6064731;23;20190;-77
2023/03/29 12:47:51;;;;;;;2.47;1.40;;;12.10;37.80;;;;;;6064587;23;20159;-77
2023/03/29 12:50:27;;;;;;;2.30;1.37;;;12.10;37.80;;;;;;6063547;23;20163;-77
2023/03/29 12:53:16;;;;;;;5.77;1.20;;;12.00;38.10;;;;;;6065897;23;20238;-78
2023/03/29 12:55:51;;;;;;;3.28;1.40;;;12.00;37.70;;;;;;6061852;23;20454;-77
2023/03/29 12:58:28;;;;;;;3.30;1.70;;;12.20;38.70;;;;;;6066515;23;20206;-77
2023/03/29 13:01:04;;;;;;;2.90;1.47;;;12.20;38.40;;;;;;6063649;23;20167;-77
2023/03/29 13:03:47;;;;;;;3.03;1.30;;;12.20;38.40;;;;;;6064135;23;20158;-77
2023/03/29 13:06:29;;;;;;;2.77;1.40;;;12.30;39.30;;;;;;6066422;23;20165;-77
2023/03/29 13:09:02;;;;;;;2.17;1.30;;;12.60;39.70;;;;;;6063595;23;20554;-77
2023/03/29 13:11:52;;;;;;;3.33;1.50;;;12.80;40.30;;;;;;6061895;23;20162;-76
2023/03/29 13:14:24;;;;;;;4.80;1.50;;;13.00;39.00;;;;;;6064538;23;20487;-76
2023/03/29 13:16:53;;;;;;;3.37;1.30;;;13.10;38.10;;;;;;6061432;23;20613;-78
2023/03/29 13:19:30;;;;;;;1.93;1.20;;;13.50;39.00;;;;;;6063564;23;20182;-77
2023/03/29 13:22:11;;;;;;;3.67;1.50;;;13.90;38.90;;;;;;6064616;23;20702;-78
2023/03/29 13:24:55;;;;;;;4.07;1.27;;;14.30;38.60;;;;;;6063569;23;20159;-77
2023/03/29 13:27:33;;;;;;;2.27;1.30;;;14.50;37.40;;;;;;6063542;23;20211;-77